createdAt,value
2022-11-01T06:05:56.569Z,71.68
2022-11-01T06:07:00.142Z,72.72
2022-11-01T06:08:03.784Z,73.79
2022-11-01T06:09:07.498Z,74.26
2022-11-01T06:10:11.231Z,74.89
2022-11-01T06:11:14.821Z,75.09
2022-11-01T06:12:19.058Z,75.14
2022-11-01T06:13:22.457Z,74.98
2022-11-01T06:14:25.692Z,74.87
2022-11-01T06:15:29.043Z,74.57
2022-11-01T06:16:32.451Z,73.80
2022-11-01T06:17:37.368Z,73.56
2022-11-01T06:18:41.737Z,73.62
2022-11-01T06:19:45.303Z,74.08
2022-11-01T06:20:49.596Z,74.17
2022-11-01T06:21:52.784Z,73.66
2022-11-01T06:22:57.798Z,73.55
2022-11-01T06:24:01.152Z,73.16
2022-11-01T06:25:05.717Z,73.21
2022-11-01T06:26:09.873Z,73.10
2022-11-01T06:27:12.863Z,73.04
2022-11-01T06:28:15.485Z,72.75
2022-11-01T06:29:18.675Z,72.01
2022-11-01T06:30:21.566Z,71.64
2022-11-01T06:31:25.178Z,71.19
2022-11-01T06:32:28.041Z,70.77
2022-11-01T06:33:32.676Z,70.51
2022-11-01T06:34:40.887Z,70.10
2022-11-01T06:35:40.871Z,69.55
2022-11-01T06:36:44.256Z,67.80
2022-11-01T06:37:48.294Z,64.87
2022-11-01T06:38:52.101Z,61.69
2022-11-01T06:39:55.513Z,60.86
2022-11-01T06:40:58.589Z,61.02
2022-11-01T06:42:02.001Z,60.91
2022-11-01T06:43:05.451Z,61.38
2022-11-01T06:44:09.220Z,61.29
2022-11-01T06:45:15.330Z,60.50
2022-11-01T06:46:18.848Z,59.68
2022-11-01T06:47:22.032Z,58.43
2022-11-01T06:48:27.405Z,58.31
2022-11-01T06:49:30.901Z,58.72
2022-11-01T06:50:34.328Z,58.44
2022-11-01T06:51:37.090Z,58.01
2022-11-01T06:52:40.485Z,58.03
2022-11-01T06:53:44.046Z,57.35
2022-11-01T06:54:48.036Z,56.58
2022-11-01T06:55:51.249Z,55.76
2022-11-01T06:56:54.609Z,53.02
2022-11-01T06:57:59.652Z,49.65
2022-11-01T06:59:02.675Z,45.54
2022-11-01T07:00:07.405Z,41.99
2022-11-01T07:01:09.770Z,39.60
2022-11-01T07:02:14.825Z,37.49
2022-11-01T07:03:18.961Z,36.11
2022-11-01T07:04:23.665Z,34.65
2022-11-01T07:05:29.368Z,35.53
2022-11-01T07:06:32.525Z,34.91
2022-11-01T07:07:34.779Z,33.48
2022-11-01T07:08:38.178Z,33.23
2022-11-01T07:09:41.323Z,33.02
2022-11-01T07:10:45.604Z,31.67
2022-11-01T07:11:49.957Z,30.67
2022-11-01T07:13:01.826Z,29.64
2022-11-01T07:14:05.114Z,29.43
2022-11-01T07:15:08.827Z,28.38
2022-11-01T07:16:12.123Z,27.91
2022-11-01T07:17:15.440Z,27.58
2022-11-01T07:18:18.924Z,27.15
2022-11-01T07:19:24.101Z,27.07
2022-11-01T07:20:28.441Z,27.40
2022-11-01T07:21:32.252Z,27.08
2022-11-01T07:22:35.544Z,26.87
2022-11-01T07:23:38.681Z,26.56
2022-11-01T07:24:45.264Z,26.85
2022-11-01T07:25:53.265Z,26.57
2022-11-01T07:26:56.678Z,26.08
2022-11-01T07:28:03.480Z,26.31
2022-11-01T07:29:06.821Z,25.64
2022-11-01T07:30:12.075Z,25.62
2022-11-01T07:31:17.382Z,25.24
2022-11-01T07:32:23.488Z,25.07
2022-11-01T07:33:26.617Z,25.11
2022-11-01T07:34:29.568Z,25.00
2022-11-01T07:35:34.266Z,24.76
2022-11-01T07:36:37.506Z,24.74
2022-11-01T07:37:40.634Z,24.90
2022-11-01T07:38:44.113Z,25.03
2022-11-01T07:39:47.651Z,24.66
2022-11-01T07:40:58.125Z,24.47
2022-11-01T07:42:04.322Z,24.26
2022-11-01T07:43:07.673Z,24.46
2022-11-01T07:44:10.921Z,24.60
2022-11-01T07:45:14.842Z,24.32
2022-11-01T07:46:19.010Z,24.26
2022-11-01T07:47:22.594Z,24.22
2022-11-01T07:48:25.263Z,24.07
2022-11-01T07:49:28.132Z,24.05
2022-11-01T07:50:32.484Z,23.63
2022-11-01T07:51:35.350Z,23.30
2022-11-01T07:52:38.585Z,23.19
2022-11-01T07:53:43.418Z,23.12
2022-11-01T11:38:43.544Z,33.34
2022-11-01T11:39:49.032Z,32.13
2022-11-01T11:40:52.856Z,33.06
2022-11-01T11:42:01.672Z,33.84
2022-11-01T11:43:24.719Z,34.13
2022-11-01T11:44:42.535Z,34.30
2022-11-01T11:45:48.848Z,33.97
2022-11-01T11:46:58.423Z,33.60
2022-11-01T11:48:18.732Z,34.16
2022-11-01T11:49:29.824Z,33.22
2022-11-01T11:50:33.993Z,33.87
2022-11-01T11:51:38.869Z,33.74
2022-11-01T11:52:42.687Z,33.25
2022-11-01T11:53:48.797Z,33.49
2022-11-01T11:54:52.515Z,33.36
2022-11-01T11:55:57.276Z,34.03
2022-11-01T11:57:19.683Z,34.28
2022-11-01T11:59:58.135Z,33.20
2022-11-01T12:01:06.430Z,32.43
2022-11-01T12:02:20.683Z,33.40
2022-11-01T12:03:24.414Z,33.02
2022-11-01T12:04:32.091Z,32.74
2022-11-01T12:05:34.970Z,33.71
2022-11-01T12:06:38.997Z,33.97
2022-11-01T12:07:47.306Z,33.24
2022-11-01T12:08:52.599Z,32.69
2022-11-01T12:09:56.111Z,33.09
2022-11-01T12:10:58.762Z,32.84
2022-11-01T12:12:08.024Z,32.82
2022-11-01T12:13:31.888Z,32.88
2022-11-01T12:14:37.896Z,34.34
2022-11-01T12:15:41.669Z,33.80
2022-11-01T12:16:45.334Z,33.28
2022-11-01T12:17:48.943Z,33.29
2022-11-01T12:18:55.433Z,33.45
2022-11-01T12:20:12.449Z,33.52
2022-11-01T12:21:18.156Z,33.58
2022-11-01T12:22:21.561Z,33.49
2022-11-01T12:23:26.616Z,35.00
2022-11-01T12:24:37.864Z,35.32
2022-11-01T12:25:43.037Z,35.34
2022-11-01T12:26:46.648Z,34.44
2022-11-01T12:27:57.412Z,34.40
2022-11-01T12:29:08.654Z,35.42
2022-11-01T12:30:15.231Z,34.28
2022-11-01T12:31:20.021Z,34.79
2022-11-01T12:32:29.824Z,34.41
2022-11-01T12:33:35.149Z,34.66
2022-11-01T12:59:38.690Z,35.46
2022-11-01T13:00:49.211Z,35.24
2022-11-01T13:01:54.503Z,36.60
2022-11-01T13:03:04.833Z,36.51
2022-11-01T13:04:14.908Z,35.51
2022-11-01T13:05:22.905Z,35.61
2022-11-01T13:06:30.786Z,35.83
2022-11-01T13:07:49.776Z,35.85
2022-11-01T13:09:11.858Z,35.79
2022-11-01T13:10:17.139Z,35.68
2022-11-01T13:11:28.062Z,35.61
2022-11-01T13:12:41.311Z,35.98
2022-11-01T13:13:46.769Z,37.54
2022-11-01T13:14:52.038Z,37.24
2022-11-01T13:15:56.940Z,37.03
2022-11-01T13:17:02.191Z,36.49
2022-11-01T13:18:22.304Z,37.29
2022-11-01T13:19:29.048Z,36.68
2022-11-01T13:20:38.758Z,36.43
2022-11-01T13:21:47.318Z,36.04
2022-11-01T13:22:55.332Z,35.79
2022-11-01T13:24:03.330Z,36.02
2022-11-01T13:25:14.239Z,36.17
2022-11-01T13:26:28.716Z,36.33
2022-11-01T13:27:39.960Z,35.50
2022-11-01T13:28:58.402Z,35.49
2022-11-01T13:30:04.815Z,35.41
2022-11-01T13:31:09.868Z,35.35
2022-11-01T13:32:15.053Z,35.24
2022-11-01T13:33:24.438Z,35.28
2022-11-01T13:34:47.146Z,35.45
2022-11-01T13:36:12.086Z,35.32
2022-11-01T13:37:34.616Z,35.33
2022-11-01T13:38:44.972Z,35.26
2022-11-01T13:40:01.323Z,35.16
2022-11-01T13:41:05.403Z,35.24
2022-11-01T13:42:17.889Z,35.99
2022-11-01T13:43:23.455Z,35.83
2022-11-01T13:44:28.944Z,36.37
2022-11-01T13:45:37.167Z,36.57
2022-11-01T13:46:47.320Z,36.77
2022-11-01T13:47:52.936Z,37.12
2022-11-01T13:49:01.130Z,38.18
2022-11-01T13:50:21.438Z,37.85
2022-11-01T13:51:26.300Z,37.87
2022-11-01T13:52:30.643Z,37.76
2022-11-01T13:53:41.681Z,38.21
2022-11-01T13:54:47.378Z,37.54
2022-11-01T13:55:53.078Z,37.24
2022-11-01T13:57:03.983Z,37.24
2022-11-01T13:58:07.421Z,37.70
2022-11-01T13:59:13.828Z,38.26
2022-11-01T14:00:36.027Z,38.31
2022-11-01T14:01:40.140Z,38.42
2022-11-01T14:02:49.918Z,38.61
2022-11-01T14:03:55.318Z,38.54
2022-11-01T14:05:03.200Z,38.84
2022-11-01T14:06:11.208Z,40.40
2022-11-01T14:07:16.370Z,40.69
2022-11-01T14:08:29.707Z,39.08
2022-11-01T14:09:33.181Z,41.52
2022-11-01T14:10:38.162Z,41.62
2022-11-01T14:11:46.592Z,42.30
2022-11-01T14:13:00.116Z,40.43
2022-11-01T14:14:06.659Z,43.78
2022-11-01T14:15:15.499Z,43.81
2022-11-01T14:16:20.770Z,41.08
2022-11-01T14:17:26.996Z,40.80
2022-11-01T14:18:32.047Z,40.43
2022-11-01T14:19:35.552Z,40.38
2022-11-01T14:20:43.759Z,40.73
2022-11-01T14:21:48.411Z,41.69
2022-11-01T14:22:52.647Z,42.80
2022-11-01T14:24:07.031Z,44.02
2022-11-01T14:25:15.262Z,44.91
2022-11-01T14:26:22.698Z,43.44
2022-11-01T14:27:31.214Z,43.71
2022-11-01T14:28:34.837Z,41.81
2022-11-01T14:29:38.536Z,43.48
2022-11-01T14:30:42.564Z,45.56
2022-11-01T14:31:47.199Z,46.14
2022-11-01T14:32:56.899Z,46.69
2022-11-01T14:34:03.733Z,45.07
2022-11-01T14:35:10.788Z,44.38
2022-11-01T14:36:16.084Z,45.46
2022-11-01T14:37:23.204Z,44.44
2022-11-01T14:38:27.793Z,45.46
2022-11-01T14:39:42.370Z,45.92
2022-11-01T14:40:52.433Z,45.99
2022-11-01T14:41:58.768Z,45.76
2022-11-01T14:43:11.058Z,45.13
2022-11-01T14:44:29.173Z,45.84
2022-11-01T14:45:36.033Z,45.46
2022-11-01T14:46:46.688Z,44.93
2022-11-01T14:47:47.464Z,45.78
2022-11-01T14:48:55.205Z,44.50
2022-11-01T14:50:00.843Z,43.83
2022-11-01T14:51:11.003Z,43.60
2022-11-01T14:52:18.506Z,43.80
2022-11-01T14:53:36.911Z,45.03
2022-11-01T14:54:45.112Z,46.55
2022-11-01T14:55:48.733Z,45.70
2022-11-01T14:56:52.956Z,44.08
2022-11-01T14:58:08.902Z,44.86
2022-11-01T14:59:14.080Z,45.17
2022-11-01T15:00:32.239Z,45.27
2022-11-01T15:01:36.416Z,45.72
2022-11-01T15:02:40.516Z,45.51
2022-11-01T15:03:59.536Z,45.66
2022-11-01T15:05:03.235Z,45.05
2022-11-01T15:06:08.632Z,44.65
2022-11-01T15:07:26.213Z,44.50
2022-11-01T15:08:38.938Z,43.28
2022-11-01T15:09:42.326Z,44.51
2022-11-01T15:10:46.680Z,44.06
2022-11-01T15:11:51.229Z,44.30
2022-11-01T15:12:59.480Z,44.00
2022-11-01T15:14:05.326Z,44.03
2022-11-01T15:15:11.449Z,45.08
2022-11-01T15:16:19.141Z,45.96
2022-11-01T15:17:23.481Z,45.20
2022-11-01T15:18:27.289Z,44.80
2022-11-01T15:19:31.311Z,45.85
2022-11-01T15:20:36.384Z,45.85
2022-11-01T15:21:46.672Z,46.59
2022-11-01T15:22:48.616Z,46.72
2022-11-01T15:23:53.388Z,47.17
2022-11-01T15:24:59.402Z,44.68
2022-11-01T15:26:03.636Z,43.84
2022-11-01T15:27:09.232Z,43.51
2022-11-01T15:28:14.183Z,42.90
2022-11-01T15:29:19.478Z,43.27
2022-11-01T15:30:24.761Z,43.79
2022-11-01T15:31:28.772Z,43.99
2022-11-01T15:32:34.517Z,43.81
2022-11-01T15:33:37.062Z,46.04
2022-11-01T15:34:40.413Z,45.36
2022-11-01T15:35:44.164Z,45.16
2022-11-01T15:36:46.623Z,45.87
2022-11-01T15:37:51.249Z,45.80
2022-11-01T15:38:55.498Z,45.11
2022-11-01T15:41:21.729Z,44.26
2022-11-01T15:42:29.200Z,44.73
2022-11-01T15:43:35.799Z,45.12
2022-11-01T15:44:46.445Z,44.97
2022-11-01T15:45:52.944Z,44.96
2022-11-01T15:46:58.268Z,44.85
2022-11-01T15:48:07.944Z,45.56
2022-11-01T15:49:16.242Z,45.22
2022-11-01T15:50:23.303Z,45.53
2022-11-01T15:51:31.508Z,44.68
2022-11-01T15:52:36.153Z,45.64
2022-11-01T15:53:43.644Z,44.95
2022-11-01T15:54:55.402Z,46.04
2022-11-01T15:56:02.282Z,46.83
2022-11-01T15:57:08.571Z,48.08
2022-11-01T15:58:13.560Z,47.65
2022-11-01T15:59:18.298Z,46.77
2022-11-01T16:00:26.317Z,46.17
2022-11-01T16:01:29.790Z,46.01
2022-11-01T16:02:36.293Z,46.23
2022-11-01T16:03:43.096Z,47.15
2022-11-01T16:04:47.424Z,49.48
2022-11-01T16:30:55.921Z,49.04
2022-11-01T16:32:10.266Z,48.29
2022-11-01T16:33:21.282Z,48.23
2022-11-01T16:34:24.816Z,47.39
2022-11-01T16:35:32.298Z,47.77
2022-11-01T16:36:37.781Z,48.49
2022-11-01T16:37:43.381Z,48.79
2022-11-01T16:38:47.930Z,49.01
2022-11-01T21:19:06.121Z,57.28
2022-11-01T21:20:12.983Z,57.67
2022-11-01T21:21:21.242Z,57.15
2022-11-01T21:22:24.751Z,57.52
2022-11-01T21:23:31.686Z,56.93
2022-11-01T21:24:36.344Z,56.89
2022-11-01T21:25:39.338Z,57.46
2022-11-01T21:26:42.620Z,57.28
2022-11-01T21:27:48.623Z,58.45
2022-11-01T21:28:55.306Z,59.26
2022-11-01T21:31:29.871Z,60.54
2022-11-01T21:32:42.576Z,61.79
2022-11-01T21:33:46.786Z,61.42
2022-11-01T21:34:50.519Z,61.21
2022-11-01T21:35:53.796Z,61.12
2022-11-01T21:36:59.324Z,59.94
2022-11-01T21:38:03.114Z,59.13
2022-11-01T21:39:25.828Z,58.88
2022-11-01T21:40:32.480Z,58.95
2022-11-01T21:41:40.461Z,59.19
2022-11-01T21:42:45.758Z,60.08
2022-11-01T21:43:49.371Z,60.82
2022-11-01T21:44:54.319Z,60.97
2022-11-01T21:46:00.896Z,60.43
2022-11-01T21:47:09.074Z,59.98
2022-11-01T21:48:16.118Z,59.94
2022-11-01T21:49:28.199Z,58.72
2022-11-01T21:50:32.400Z,58.93
2022-11-01T21:51:35.837Z,58.88
2022-11-01T21:52:38.713Z,58.32
2022-11-01T21:53:43.365Z,58.22
2022-11-01T21:54:47.500Z,59.27
2022-11-01T21:55:52.256Z,59.74
2022-11-01T21:56:55.960Z,59.76
2022-11-01T21:57:59.790Z,59.55
2022-11-01T21:59:02.966Z,59.16
2022-11-01T22:00:06.825Z,59.06
2022-11-01T22:01:09.567Z,59.14
2022-11-01T22:02:13.937Z,59.12
2022-11-01T22:03:17.405Z,58.86
2022-11-01T22:04:23.392Z,58.87
2022-11-01T22:05:26.414Z,58.69
2022-11-01T22:06:29.710Z,59.30
2022-11-01T22:07:35.029Z,60.50
2022-11-01T22:08:42.719Z,61.34
2022-11-01T22:09:47.869Z,61.41
2022-11-01T22:10:52.906Z,62.28
2022-11-01T22:11:56.424Z,62.69
2022-11-01T22:13:02.941Z,62.94
2022-11-01T22:14:05.003Z,62.48
2022-11-01T22:15:09.284Z,62.26
2022-11-01T22:16:14.834Z,62.31
2022-11-01T22:17:18.220Z,62.29
2022-11-01T22:18:24.956Z,62.07
2022-11-01T22:19:25.969Z,61.62
2022-11-01T22:20:30.107Z,60.89
2022-11-01T22:21:33.760Z,60.68
2022-11-01T22:22:36.890Z,61.06
2022-11-01T22:23:41.064Z,61.41
2022-11-01T22:24:44.633Z,61.20
2022-11-01T22:25:48.137Z,61.01
2022-11-01T22:26:54.061Z,60.78
2022-11-01T22:27:56.731Z,60.86
2022-11-01T22:28:58.966Z,60.65
2022-11-01T22:30:03.322Z,61.00
2022-11-01T22:31:06.409Z,61.88
2022-11-01T22:32:09.705Z,62.16
2022-11-01T22:33:14.044Z,62.44
2022-11-01T22:34:17.784Z,63.01
2022-11-01T22:35:21.248Z,62.15
2022-11-01T22:36:28.814Z,61.47
2022-11-01T22:38:48.902Z,61.31
2022-11-01T22:39:53.219Z,61.94
2022-11-01T22:40:59.136Z,62.56
2022-11-01T22:42:02.561Z,62.62
2022-11-01T22:43:08.989Z,63.31
2022-11-01T22:44:15.102Z,63.46
2022-11-01T22:45:19.552Z,64.10
2022-11-01T22:46:26.603Z,64.41
2022-11-01T22:47:32.302Z,64.17
2022-11-01T22:48:37.891Z,63.61
2022-11-01T22:49:42.429Z,63.25
2022-11-01T22:50:45.308Z,63.25
2022-11-01T22:51:52.004Z,62.69
2022-11-01T22:52:56.190Z,62.62
2022-11-01T22:53:59.388Z,63.34
2022-11-01T22:55:06.863Z,63.82
2022-11-01T22:56:11.793Z,64.31
2022-11-01T22:57:20.855Z,64.62
2022-11-01T22:58:29.071Z,64.73
2022-11-01T22:59:33.449Z,64.03
2022-11-01T23:00:38.789Z,64.13
2022-11-01T23:01:43.549Z,64.64
2022-11-01T23:02:49.246Z,64.92
2022-11-01T23:03:56.304Z,65.18
2022-11-01T23:05:07.220Z,65.03
2022-11-01T23:06:11.600Z,65.09
2022-11-01T23:07:26.983Z,64.79
2022-11-01T23:08:34.396Z,64.88
2022-11-01T23:09:37.848Z,64.86
2022-11-01T23:10:43.979Z,64.42
2022-11-01T23:12:10.763Z,64.25
2022-11-01T23:13:36.738Z,64.33
2022-11-01T23:14:43.789Z,63.51
2022-11-01T23:15:47.075Z,63.62
2022-11-01T23:16:50.371Z,63.17
2022-11-01T23:17:54.537Z,63.12
2022-11-01T23:18:59.904Z,63.33
2022-11-01T23:20:05.273Z,63.02
2022-11-01T23:21:09.298Z,63.41
2022-11-01T23:22:17.297Z,63.42
2022-11-01T23:23:21.285Z,62.96
2022-11-01T23:24:25.473Z,62.84
2022-11-01T23:25:31.677Z,63.02
2022-11-01T23:26:36.852Z,62.75
2022-11-01T23:27:42.446Z,62.49
2022-11-01T23:28:46.070Z,62.48
2022-11-01T23:29:50.830Z,62.70
2022-11-01T23:30:53.814Z,62.84
2022-11-01T23:31:57.420Z,62.81
2022-11-01T23:33:05.275Z,62.99
2022-11-01T23:34:10.801Z,62.79
2022-11-01T23:35:15.963Z,62.78
2022-11-01T23:36:26.065Z,62.77
2022-11-01T23:37:28.726Z,62.56
2022-11-01T23:38:34.021Z,62.90
2022-11-01T23:39:36.370Z,62.98
2022-11-01T23:40:39.588Z,62.90
2022-11-01T23:41:45.160Z,62.85
2022-11-01T23:42:49.520Z,62.80
2022-11-01T23:43:55.193Z,62.80
2022-11-01T23:44:59.328Z,62.26
2022-11-01T23:46:03.039Z,62.15
2022-11-01T23:47:14.795Z,61.55
2022-11-01T23:48:20.180Z,61.72
2022-11-01T23:49:26.813Z,60.98
2022-11-01T23:50:32.084Z,60.33
2022-11-01T23:51:35.279Z,60.83
2022-11-01T23:52:49.434Z,61.41
2022-11-01T23:53:54.403Z,60.57
2022-11-01T23:54:57.698Z,60.15
2022-11-01T23:56:02.398Z,60.45
2022-11-01T23:57:07.121Z,59.58
2022-11-01T23:58:12.696Z,60.27
2022-11-01T23:59:16.638Z,60.04
